createdAt,value
2018-12-16T00:00:10.388Z,1009.09
2018-12-16T00:01:10.388Z,1009.10
2018-12-16T00:02:10.385Z,1009.15
2018-12-16T00:03:10.392Z,1009.21
2018-12-16T00:04:10.396Z,1009.22
2018-12-16T00:05:10.396Z,1009.28
2018-12-16T00:06:10.396Z,1009.31
2018-12-16T00:07:10.404Z,1009.31
2018-12-16T00:08:10.407Z,1009.40
2018-12-16T00:09:10.406Z,1009.34
2018-12-16T00:10:10.411Z,1009.31
2018-12-16T00:11:10.416Z,1009.36
2018-12-16T00:12:10.414Z,1009.42
2018-12-16T00:13:10.421Z,1009.44
2018-12-16T00:14:10.433Z,1009.46
2018-12-16T00:15:10.482Z,1009.40
2018-12-16T00:16:10.424Z,1009.45
2018-12-16T00:17:10.431Z,1009.44
2018-12-16T00:18:10.432Z,1009.41
2018-12-16T00:19:10.434Z,1009.46
2018-12-16T00:20:10.441Z,1009.41
2018-12-16T00:21:10.440Z,1009.42
2018-12-16T00:22:10.444Z,1009.28
2018-12-16T00:23:10.445Z,1009.28
2018-12-16T00:24:10.453Z,1009.20
2018-12-16T00:25:10.456Z,1009.12
2018-12-16T00:26:10.453Z,1009.06
2018-12-16T00:27:10.457Z,1009.00
2018-12-16T00:28:10.460Z,1008.98
2018-12-16T00:29:10.459Z,1008.94
2018-12-16T00:30:10.467Z,1008.91
2018-12-16T00:31:10.475Z,1008.84
2018-12-16T00:32:10.469Z,1008.87
2018-12-16T00:33:10.474Z,1008.82
2018-12-16T00:34:10.475Z,1008.84
2018-12-16T00:35:10.477Z,1008.82
2018-12-16T00:36:10.478Z,1008.84
2018-12-16T00:37:10.478Z,1008.82
2018-12-16T00:38:10.488Z,1008.82
2018-12-16T00:39:10.489Z,1008.84
2018-12-16T00:40:10.494Z,1008.83
2018-12-16T00:41:10.493Z,1008.84
2018-12-16T00:42:10.495Z,1008.77
2018-12-16T00:43:10.499Z,1008.81
2018-12-16T00:44:10.506Z,1008.74
2018-12-16T00:45:10.508Z,1008.80
2018-12-16T00:46:10.513Z,1008.73
2018-12-16T00:47:10.512Z,1008.61
2018-12-16T00:48:10.513Z,1008.59
2018-12-16T00:49:10.513Z,1008.53
2018-12-16T00:50:10.521Z,1008.50
2018-12-16T00:51:10.521Z,1008.46
2018-12-16T00:52:10.522Z,1008.41
2018-12-16T00:53:10.520Z,1008.35
2018-12-16T00:54:10.524Z,1008.36
2018-12-16T00:55:10.534Z,1008.33
2018-12-16T00:56:10.532Z,1008.34
2018-12-16T00:57:10.543Z,1008.33
2018-12-16T00:58:10.539Z,1008.36
2018-12-16T00:59:10.544Z,1008.30
2018-12-16T01:00:10.545Z,1008.29
2018-12-16T01:01:10.548Z,1008.28
2018-12-16T01:02:10.552Z,1008.26
2018-12-16T01:03:10.549Z,1008.25
2018-12-16T01:04:10.555Z,1008.27
2018-12-16T01:05:10.561Z,1008.25
2018-12-16T01:06:10.565Z,1008.27
2018-12-16T01:07:10.559Z,1008.27
2018-12-16T01:08:10.566Z,1008.30
2018-12-16T01:09:10.570Z,1008.28
2018-12-16T01:10:10.577Z,1008.28
2018-12-16T01:11:10.577Z,1008.24
2018-12-16T01:12:10.587Z,1008.20
2018-12-16T01:13:10.584Z,1008.19
2018-12-16T01:14:10.577Z,1008.24
2018-12-16T01:15:10.583Z,1008.20
2018-12-16T01:16:10.590Z,1008.18
2018-12-16T01:17:10.597Z,1008.20
2018-12-16T01:18:10.595Z,1008.20
2018-12-16T01:19:10.597Z,1008.15
2018-12-16T01:20:10.669Z,1008.16
2018-12-16T01:21:10.597Z,1008.14
2018-12-16T01:22:10.604Z,1008.08
2018-12-16T01:23:10.610Z,1008.08
2018-12-16T01:24:10.609Z,1008.08
2018-12-16T01:25:10.611Z,1007.98
2018-12-16T01:26:10.616Z,1008.00
2018-12-16T01:27:10.623Z,1007.98
2018-12-16T01:28:10.623Z,1007.94
2018-12-16T01:29:10.623Z,1007.91
2018-12-16T01:30:10.630Z,1007.93
2018-12-16T01:31:10.633Z,1007.92
2018-12-16T01:32:10.635Z,1007.93
2018-12-16T01:33:10.631Z,1007.90
2018-12-16T01:34:10.640Z,1007.86
2018-12-16T01:35:10.639Z,1007.88
2018-12-16T01:36:10.643Z,1007.87
2018-12-16T01:37:10.644Z,1007.88
2018-12-16T01:38:10.649Z,1007.87
2018-12-16T01:39:10.654Z,1007.83
2018-12-16T01:40:10.650Z,1007.94
2018-12-16T01:41:10.653Z,1007.94
2018-12-16T01:42:10.658Z,1007.91
2018-12-16T01:43:10.658Z,1007.94
2018-12-16T01:44:10.664Z,1007.90
2018-12-16T01:45:10.661Z,1007.90
2018-12-16T01:46:10.670Z,1007.90
2018-12-16T01:47:10.669Z,1007.84
2018-12-16T01:48:10.672Z,1007.77
2018-12-16T01:49:10.674Z,1007.81
2018-12-16T01:50:10.690Z,1007.84
2018-12-16T01:51:10.681Z,1007.80
2018-12-16T01:52:10.686Z,1007.72
2018-12-16T01:53:10.687Z,1007.79
2018-12-16T01:54:10.695Z,1007.67
2018-12-16T01:55:10.686Z,1007.65
2018-12-16T01:56:10.694Z,1007.68
2018-12-16T01:57:10.694Z,1007.67
2018-12-16T01:58:10.698Z,1007.65
2018-12-16T01:59:10.701Z,1007.63
2018-12-16T02:00:10.704Z,1007.55
2018-12-16T02:01:10.707Z,1007.57
2018-12-16T02:02:10.711Z,1007.63
2018-12-16T02:03:10.717Z,1007.56
2018-12-16T02:04:10.715Z,1007.53
2018-12-16T02:05:10.715Z,1007.57
2018-12-16T02:06:10.719Z,1007.50
2018-12-16T02:07:10.727Z,1007.51
2018-12-16T02:08:10.733Z,1007.43
2018-12-16T02:09:10.731Z,1007.47
2018-12-16T02:10:10.736Z,1007.46
2018-12-16T02:11:10.733Z,1007.46
2018-12-16T02:12:10.733Z,1007.45
2018-12-16T02:13:10.744Z,1007.40
2018-12-16T02:14:10.743Z,1007.42
2018-12-16T02:15:10.748Z,1007.39
2018-12-16T02:16:10.749Z,1007.36
2018-12-16T02:17:10.755Z,1007.39
2018-12-16T02:18:10.757Z,1007.35
2018-12-16T02:19:10.751Z,1007.31
2018-12-16T02:20:10.759Z,1007.33
2018-12-16T02:21:10.759Z,1007.31
2018-12-16T02:22:10.763Z,1007.32
2018-12-16T02:23:10.769Z,1007.28
2018-12-16T02:24:10.770Z,1007.21
2018-12-16T02:25:10.772Z,1007.22
2018-12-16T02:26:10.770Z,1007.19
2018-12-16T02:27:10.777Z,1007.17
2018-12-16T02:28:10.783Z,1007.14
2018-12-16T02:29:10.779Z,1007.11
2018-12-16T02:30:10.785Z,1007.11
2018-12-16T02:31:10.788Z,1007.08
2018-12-16T02:32:10.790Z,1007.13
2018-12-16T02:33:10.794Z,1007.14
2018-12-16T02:34:10.800Z,1007.13
2018-12-16T02:35:10.799Z,1007.12
2018-12-16T02:36:10.806Z,1007.11
2018-12-16T02:37:10.809Z,1007.13
2018-12-16T02:38:10.806Z,1007.13
2018-12-16T02:39:10.816Z,1007.11
2018-12-16T02:40:10.815Z,1007.08
2018-12-16T02:41:10.816Z,1007.03
2018-12-16T02:42:10.818Z,1006.93
2018-12-16T02:43:10.821Z,1006.92
2018-12-16T02:44:10.827Z,1006.85
2018-12-16T02:45:10.822Z,1006.82
2018-12-16T02:46:10.832Z,1006.80
2018-12-16T02:47:10.836Z,1006.75
2018-12-16T02:48:10.833Z,1006.84
2018-12-16T02:49:10.834Z,1006.84
2018-12-16T02:50:10.838Z,1006.86
2018-12-16T02:51:10.840Z,1006.89
2018-12-16T02:52:10.844Z,1006.80
2018-12-16T02:53:10.845Z,1006.85
2018-12-16T02:54:10.851Z,1006.85
2018-12-16T02:55:10.861Z,1006.83
2018-12-16T02:56:11.553Z,1006.80
2018-12-16T02:57:10.867Z,1006.80
2018-12-16T02:58:10.894Z,1006.73
2018-12-16T02:59:10.859Z,1006.74
2018-12-16T03:00:10.863Z,1006.70
2018-12-16T03:01:10.868Z,1006.68
2018-12-16T03:02:10.869Z,1006.61
2018-12-16T03:03:10.876Z,1006.63
2018-12-16T03:04:10.877Z,1006.51
2018-12-16T03:05:10.880Z,1006.54
2018-12-16T03:06:10.876Z,1006.52
2018-12-16T03:07:10.881Z,1006.53
2018-12-16T03:08:10.891Z,1006.48
2018-12-16T03:09:10.887Z,1006.44
2018-12-16T03:10:10.893Z,1006.44
2018-12-16T03:11:10.895Z,1006.43
2018-12-16T03:12:10.897Z,1006.39
2018-12-16T03:13:10.896Z,1006.41
2018-12-16T03:14:10.897Z,1006.38
2018-12-16T03:15:10.907Z,1006.40
2018-12-16T03:16:10.911Z,1006.41
2018-12-16T03:17:10.909Z,1006.40
2018-12-16T03:18:10.913Z,1006.45
2018-12-16T03:19:10.919Z,1006.41
2018-12-16T03:20:10.921Z,1006.36
2018-12-16T03:21:10.926Z,1006.39
2018-12-16T03:22:10.932Z,1006.35
2018-12-16T03:23:12.524Z,1006.34
2018-12-16T03:24:10.929Z,1006.34
2018-12-16T03:25:10.931Z,1006.31
2018-12-16T03:26:10.933Z,1006.33
2018-12-16T03:27:10.937Z,1006.32
2018-12-16T03:28:10.940Z,1006.36
2018-12-16T03:29:10.951Z,1006.28
2018-12-16T03:30:10.945Z,1006.32
2018-12-16T03:31:10.946Z,1006.29
2018-12-16T03:32:10.958Z,1006.27
2018-12-16T03:33:10.954Z,1006.25
2018-12-16T03:34:10.953Z,1006.22
2018-12-16T03:35:10.962Z,1006.25
2018-12-16T03:36:10.961Z,1006.20
2018-12-16T03:37:10.959Z,1006.25
2018-12-16T03:38:10.966Z,1006.22
2018-12-16T03:39:10.970Z,1006.26
2018-12-16T03:40:10.968Z,1006.23
2018-12-16T03:41:10.979Z,1006.22
2018-12-16T03:42:10.981Z,1006.22
2018-12-16T03:43:10.978Z,1006.22
2018-12-16T03:44:10.988Z,1006.24
2018-12-16T03:45:11.001Z,1006.21
2018-12-16T03:46:10.997Z,1006.23
2018-12-16T03:47:10.989Z,1006.22
2018-12-16T03:48:10.995Z,1006.23
2018-12-16T03:49:10.995Z,1006.16
2018-12-16T03:50:10.997Z,1006.17
2018-12-16T03:51:10.996Z,1006.14
2018-12-16T03:52:10.998Z,1006.10
2018-12-16T03:53:11.007Z,1006.11
2018-12-16T03:54:11.011Z,1006.08
2018-12-16T03:55:11.014Z,1006.01
2018-12-16T03:56:11.011Z,1006.03
2018-12-16T03:57:11.016Z,1006.05
2018-12-16T03:58:11.013Z,1006.08
2018-12-16T03:59:11.023Z,1006.09
2018-12-16T04:00:11.023Z,1006.04
2018-12-16T04:01:11.024Z,1006.08
2018-12-16T04:02:11.025Z,1006.07
2018-12-16T04:03:11.043Z,1006.07
2018-12-16T04:04:11.033Z,1006.02
2018-12-16T04:05:11.045Z,1005.99
2018-12-16T04:06:11.041Z,1005.99
2018-12-16T04:07:11.044Z,1005.96
2018-12-16T04:08:11.043Z,1005.91
2018-12-16T04:09:11.043Z,1005.91
2018-12-16T04:10:11.055Z,1005.88
2018-12-16T04:11:11.050Z,1005.89
2018-12-16T04:12:11.057Z,1005.88
2018-12-16T04:13:11.056Z,1005.86
2018-12-16T04:14:11.064Z,1005.90
2018-12-16T04:15:11.048Z,1005.90
2018-12-16T04:16:11.068Z,1005.94
2018-12-16T04:17:11.067Z,1005.97
2018-12-16T04:18:11.074Z,1005.93
2018-12-16T04:19:11.073Z,1005.95
2018-12-16T04:20:11.079Z,1005.92
2018-12-16T04:21:11.077Z,1005.96
2018-12-16T04:22:11.083Z,1005.93
2018-12-16T04:23:11.083Z,1005.94
2018-12-16T04:24:11.091Z,1005.92
2018-12-16T04:25:11.093Z,1005.94
2018-12-16T04:26:11.096Z,1005.90
2018-12-16T04:27:11.092Z,1005.87
2018-12-16T04:28:11.101Z,1005.86
2018-12-16T04:29:11.105Z,1005.86
2018-12-16T04:30:11.102Z,1005.82
2018-12-16T04:31:11.114Z,1005.82
2018-12-16T04:32:11.109Z,1005.81
2018-12-16T04:33:11.114Z,1005.83
2018-12-16T04:34:11.123Z,1005.83
2018-12-16T04:35:11.117Z,1005.84
2018-12-16T04:36:11.119Z,1005.78
2018-12-16T04:37:11.116Z,1005.86
2018-12-16T04:38:11.126Z,1005.86
2018-12-16T04:39:11.124Z,1005.84
2018-12-16T04:40:11.126Z,1005.85
2018-12-16T04:41:11.132Z,1005.92
2018-12-16T04:42:11.133Z,1005.93
2018-12-16T04:43:11.140Z,1005.97
2018-12-16T04:44:11.140Z,1006.00
2018-12-16T04:45:11.143Z,1006.01
2018-12-16T04:46:11.150Z,1006.03
2018-12-16T04:47:11.144Z,1006.04
2018-12-16T04:48:11.152Z,1006.05
2018-12-16T04:49:11.154Z,1006.07
2018-12-16T04:50:11.158Z,1006.03
2018-12-16T04:51:11.164Z,1006.00
2018-12-16T04:52:11.153Z,1005.99
2018-12-16T04:53:11.167Z,1006.04
2018-12-16T04:54:11.162Z,1006.03
2018-12-16T04:55:11.173Z,1006.05
2018-12-16T04:56:11.175Z,1006.05
2018-12-16T04:57:11.174Z,1006.06
2018-12-16T04:58:11.178Z,1006.07
2018-12-16T04:59:11.176Z,1006.09
2018-12-16T05:00:11.176Z,1006.07
2018-12-16T05:01:11.189Z,1005.98
2018-12-16T05:02:11.186Z,1005.98
2018-12-16T05:03:11.190Z,1005.92
2018-12-16T05:04:11.194Z,1005.91
2018-12-16T05:05:11.194Z,1005.85
2018-12-16T05:06:11.196Z,1005.90
2018-12-16T05:07:11.200Z,1005.86
2018-12-16T05:08:11.196Z,1005.87
2018-12-16T05:09:11.204Z,1005.82
2018-12-16T05:10:11.207Z,1005.81
2018-12-16T05:11:11.207Z,1005.77
2018-12-16T05:12:11.219Z,1005.77
2018-12-16T05:13:11.214Z,1005.76
2018-12-16T05:14:11.223Z,1005.77
2018-12-16T05:15:11.222Z,1005.75
2018-12-16T05:16:11.229Z,1005.78
2018-12-16T05:17:11.234Z,1005.80
2018-12-16T05:18:11.223Z,1005.78
2018-12-16T05:19:11.232Z,1005.77
2018-12-16T05:20:11.234Z,1005.77
2018-12-16T05:21:11.235Z,1005.77
2018-12-16T05:22:11.233Z,1005.75
2018-12-16T05:23:11.239Z,1005.71
2018-12-16T05:24:11.243Z,1005.77
2018-12-16T05:25:11.249Z,1005.82
2018-12-16T05:26:11.243Z,1005.83
2018-12-16T05:27:11.249Z,1005.80
2018-12-16T05:28:11.251Z,1005.77
2018-12-16T05:29:11.259Z,1005.82
2018-12-16T05:30:11.257Z,1005.74
2018-12-16T05:31:11.261Z,1005.65
2018-12-16T05:32:11.263Z,1005.57
2018-12-16T05:33:11.261Z,1005.56
2018-12-16T05:34:11.274Z,1005.57
2018-12-16T05:35:11.273Z,1005.63
2018-12-16T05:36:11.280Z,1005.69
2018-12-16T05:37:11.281Z,1005.73
2018-12-16T05:38:11.279Z,1005.73
2018-12-16T05:39:11.279Z,1005.78
2018-12-16T05:40:11.284Z,1005.79
2018-12-16T05:41:11.285Z,1005.82
2018-12-16T05:42:11.302Z,1005.79
2018-12-16T05:43:11.288Z,1005.81
2018-12-16T05:44:11.313Z,1005.82
2018-12-16T05:45:11.295Z,1005.80
2018-12-16T05:46:11.299Z,1005.76
2018-12-16T05:47:11.300Z,1005.77
2018-12-16T05:48:11.305Z,1005.74
2018-12-16T05:49:11.307Z,1005.74
2018-12-16T05:50:11.309Z,1005.74
2018-12-16T05:51:11.314Z,1005.71
2018-12-16T05:52:11.312Z,1005.72
2018-12-16T05:53:11.312Z,1005.72
2018-12-16T05:54:11.320Z,1005.72
2018-12-16T05:55:11.325Z,1005.73
2018-12-16T05:56:11.325Z,1005.72
2018-12-16T05:57:11.327Z,1005.70
2018-12-16T05:58:11.331Z,1005.69
2018-12-16T05:59:11.338Z,1005.71
2018-12-16T06:00:11.330Z,1005.71
2018-12-16T06:01:11.344Z,1005.74
2018-12-16T06:02:11.339Z,1005.69
2018-12-16T06:03:11.343Z,1005.67
2018-12-16T06:04:11.351Z,1005.66
2018-12-16T06:05:11.347Z,1005.63
2018-12-16T06:06:11.352Z,1005.56
2018-12-16T06:07:11.349Z,1005.60
2018-12-16T06:08:11.351Z,1005.60
2018-12-16T06:09:11.356Z,1005.64
2018-12-16T06:10:11.363Z,1005.68
2018-12-16T06:11:11.358Z,1005.64
2018-12-16T06:12:11.369Z,1005.65
2018-12-16T06:13:11.370Z,1005.63
2018-12-16T06:14:11.374Z,1005.63
2018-12-16T06:15:11.369Z,1005.60
2018-12-16T06:16:11.373Z,1005.57
2018-12-16T06:17:11.379Z,1005.60
2018-12-16T06:18:11.382Z,1005.56
2018-12-16T06:19:11.381Z,1005.57
2018-12-16T06:20:11.383Z,1005.51
2018-12-16T06:21:11.385Z,1005.57
2018-12-16T06:22:11.387Z,1005.58
2018-12-16T06:23:11.393Z,1005.59
2018-12-16T06:24:11.399Z,1005.61
2018-12-16T06:25:11.405Z,1005.61
2018-12-16T06:26:11.401Z,1005.59
2018-12-16T06:27:11.402Z,1005.63
2018-12-16T06:28:11.405Z,1005.61
2018-12-16T06:29:11.405Z,1005.64
2018-12-16T06:30:11.405Z,1005.64
2018-12-16T06:31:11.415Z,1005.60
2018-12-16T06:32:11.413Z,1005.61
2018-12-16T06:33:11.414Z,1005.54
2018-12-16T06:34:11.421Z,1005.54
2018-12-16T06:35:11.421Z,1005.52
2018-12-16T06:36:11.423Z,1005.55
2018-12-16T06:37:11.433Z,1005.55
2018-12-16T06:38:11.435Z,1005.53
2018-12-16T06:39:11.431Z,1005.54
2018-12-16T06:40:11.433Z,1005.53
2018-12-16T06:41:11.439Z,1005.57
2018-12-16T06:42:11.444Z,1005.58
2018-12-16T06:43:11.441Z,1005.56
2018-12-16T06:44:11.443Z,1005.49
2018-12-16T06:45:11.451Z,1005.51
2018-12-16T06:46:11.452Z,1005.47
2018-12-16T06:47:11.449Z,1005.43
2018-12-16T06:48:11.465Z,1005.45
2018-12-16T06:49:11.457Z,1005.44
2018-12-16T06:50:11.466Z,1005.43
2018-12-16T06:51:11.465Z,1005.42
2018-12-16T06:52:11.465Z,1005.43
2018-12-16T06:53:11.465Z,1005.45
2018-12-16T06:54:11.472Z,1005.40
2018-12-16T06:55:11.475Z,1005.32
2018-12-16T06:56:11.475Z,1005.39
2018-12-16T06:57:11.475Z,1005.34
2018-12-16T06:58:11.477Z,1005.35
2018-12-16T06:59:11.481Z,1005.32
2018-12-16T07:00:11.483Z,1005.33
2018-12-16T07:01:11.487Z,1005.39
2018-12-16T07:02:11.485Z,1005.42
2018-12-16T07:03:11.493Z,1005.42
2018-12-16T07:04:11.497Z,1005.41
2018-12-16T07:05:11.507Z,1005.44
2018-12-16T07:06:11.501Z,1005.45
2018-12-16T07:07:11.503Z,1005.42
2018-12-16T07:08:11.508Z,1005.43
2018-12-16T07:09:11.509Z,1005.44
2018-12-16T07:10:11.510Z,1005.43
2018-12-16T07:11:11.518Z,1005.42
2018-12-16T07:12:11.514Z,1005.44
2018-12-16T07:13:11.523Z,1005.41
2018-12-16T07:14:11.540Z,1005.43
2018-12-16T07:15:11.524Z,1005.43
2018-12-16T07:16:11.563Z,1005.40
2018-12-16T07:17:11.562Z,1005.38
2018-12-16T07:18:11.563Z,1005.41
2018-12-16T07:19:11.528Z,1005.38
2018-12-16T07:20:11.535Z,1005.43
2018-12-16T07:21:11.532Z,1005.40
2018-12-16T07:22:11.568Z,1005.42
2018-12-16T07:23:11.540Z,1005.40
2018-12-16T07:24:11.547Z,1005.42
2018-12-16T07:25:11.559Z,1005.42
2018-12-16T07:26:11.565Z,1005.41
2018-12-16T07:27:11.553Z,1005.41
2018-12-16T07:28:11.559Z,1005.42
2018-12-16T07:29:11.559Z,1005.45
2018-12-16T07:30:11.564Z,1005.45
2018-12-16T07:31:11.588Z,1005.44
2018-12-16T07:32:11.586Z,1005.45
2018-12-16T07:33:11.571Z,1005.42
2018-12-16T07:34:11.571Z,1005.44
2018-12-16T07:35:11.641Z,1005.47
2018-12-16T07:36:11.611Z,1005.45
2018-12-16T07:37:11.583Z,1005.50
2018-12-16T07:38:11.582Z,1005.51
2018-12-16T07:39:11.607Z,1005.50
2018-12-16T07:40:11.612Z,1005.53
2018-12-16T07:41:11.623Z,1005.51
2018-12-16T07:42:11.608Z,1005.54
2018-12-16T07:43:11.607Z,1005.52
2018-12-16T07:44:11.643Z,1005.52
2018-12-16T07:45:11.595Z,1005.55
2018-12-16T07:46:11.619Z,1005.56
2018-12-16T07:47:11.616Z,1005.58
2018-12-16T07:48:11.649Z,1005.63
2018-12-16T07:49:11.609Z,1005.68
2018-12-16T07:50:11.609Z,1005.63
2018-12-16T07:51:11.617Z,1005.66
2018-12-16T07:52:11.630Z,1005.68
2018-12-16T07:53:11.617Z,1005.69
2018-12-16T07:54:16.087Z,1005.69
2018-12-16T07:55:11.622Z,1005.65
2018-12-16T07:56:11.623Z,1005.67
2018-12-16T07:57:11.627Z,1005.67
2018-12-16T07:58:11.647Z,1005.66
2018-12-16T07:59:11.669Z,1005.68
2018-12-16T08:00:11.637Z,1005.73
2018-12-16T08:01:11.656Z,1005.74
2018-12-16T08:02:11.648Z,1005.71
2018-12-16T08:03:11.660Z,1005.76
2018-12-16T08:04:11.664Z,1005.80
2018-12-16T08:05:11.674Z,1005.81
2018-12-16T08:06:11.661Z,1005.84
2018-12-16T08:07:11.660Z,1005.82
2018-12-16T08:08:11.657Z,1005.85
2018-12-16T08:09:11.668Z,1005.82
2018-12-16T08:10:11.667Z,1005.80
2018-12-16T08:11:11.670Z,1005.81
2018-12-16T08:12:11.671Z,1005.81
2018-12-16T08:13:11.672Z,1005.82
2018-12-16T08:14:11.679Z,1005.80
2018-12-16T08:15:11.681Z,1005.82
2018-12-16T08:16:11.687Z,1005.83
2018-12-16T08:17:11.689Z,1005.84
2018-12-16T08:18:11.689Z,1005.81
2018-12-16T08:19:11.697Z,1005.77
2018-12-16T08:20:11.695Z,1005.76
2018-12-16T08:21:11.701Z,1005.79
2018-12-16T08:22:11.705Z,1005.78
2018-12-16T08:23:11.764Z,1005.74
2018-12-16T08:24:11.710Z,1005.75
2018-12-16T08:25:11.709Z,1005.81
2018-12-16T08:26:11.715Z,1005.77
2018-12-16T08:27:11.721Z,1005.85
2018-12-16T08:28:11.724Z,1005.82
2018-12-16T08:29:11.739Z,1005.85
2018-12-16T08:30:11.729Z,1005.86
2018-12-16T08:31:11.737Z,1005.84
2018-12-16T08:32:11.736Z,1005.88
2018-12-16T08:33:11.751Z,1005.88
2018-12-16T08:34:11.740Z,1005.86
2018-12-16T08:35:11.744Z,1005.90
2018-12-16T08:36:11.751Z,1005.90
2018-12-16T08:37:11.757Z,1005.92
2018-12-16T08:38:11.751Z,1005.95
2018-12-16T08:39:11.757Z,1005.94
2018-12-16T08:40:11.759Z,1005.94
2018-12-16T08:41:11.765Z,1006.02
2018-12-16T08:42:12.270Z,1006.04
2018-12-16T08:43:11.774Z,1006.04
2018-12-16T08:44:11.773Z,1006.05
2018-12-16T08:45:11.776Z,1006.06
2018-12-16T08:46:11.779Z,1006.06
2018-12-16T08:47:11.796Z,1006.02
2018-12-16T08:48:11.797Z,1005.99
2018-12-16T08:49:11.789Z,1006.04
2018-12-16T08:50:11.791Z,1006.01
2018-12-16T08:51:11.800Z,1006.06
2018-12-16T08:52:11.797Z,1006.07
2018-12-16T08:53:11.804Z,1006.05
2018-12-16T08:54:11.806Z,1006.06
2018-12-16T08:55:11.818Z,1006.05
2018-12-16T08:56:11.815Z,1006.01
2018-12-16T08:57:11.818Z,1005.96
2018-12-16T08:58:11.822Z,1005.99
2018-12-16T08:59:11.826Z,1005.95
2018-12-16T09:00:11.825Z,1005.89
2018-12-16T09:01:11.830Z,1005.89
2018-12-16T09:02:11.830Z,1006.00
2018-12-16T09:03:11.836Z,1005.92
2018-12-16T09:04:11.834Z,1005.96
2018-12-16T09:05:11.852Z,1005.97
2018-12-16T09:06:11.847Z,1005.99
2018-12-16T09:07:11.853Z,1005.96
2018-12-16T09:08:11.853Z,1005.95
2018-12-16T09:09:11.853Z,1005.99
2018-12-16T09:10:11.859Z,1006.03
2018-12-16T09:11:11.864Z,1006.05
2018-12-16T09:12:11.866Z,1006.01
2018-12-16T09:13:11.869Z,1006.02
2018-12-16T09:14:11.871Z,1006.04
2018-12-16T09:15:11.877Z,1006.00
2018-12-16T09:16:11.896Z,1006.00
2018-12-16T09:17:11.889Z,1006.00
2018-12-16T09:18:11.888Z,1006.04
2018-12-16T09:19:11.896Z,1006.05
2018-12-16T09:20:11.891Z,1006.01
2018-12-16T09:21:11.896Z,1005.98
2018-12-16T09:22:11.898Z,1006.00
2018-12-16T09:23:11.898Z,1006.03
2018-12-16T09:24:11.908Z,1006.01
2018-12-16T09:25:11.914Z,1005.97
2018-12-16T09:26:11.912Z,1005.94
2018-12-16T09:27:11.914Z,1005.95
2018-12-16T09:28:11.918Z,1005.92
2018-12-16T09:29:11.925Z,1005.95
2018-12-16T09:30:11.924Z,1005.96
2018-12-16T09:31:11.926Z,1005.98
2018-12-16T09:32:11.933Z,1005.98
2018-12-16T09:33:11.936Z,1005.94
2018-12-16T09:34:11.942Z,1005.97
2018-12-16T09:35:11.941Z,1006.04
2018-12-16T09:36:11.948Z,1006.07
2018-12-16T09:37:11.961Z,1006.12
2018-12-16T09:38:11.952Z,1006.08
2018-12-16T09:39:11.954Z,1006.11
2018-12-16T09:40:11.956Z,1006.07
2018-12-16T09:41:11.955Z,1006.08
2018-12-16T09:42:11.968Z,1006.09
2018-12-16T09:43:11.964Z,1006.04
2018-12-16T09:44:11.975Z,1006.09
2018-12-16T09:45:11.974Z,1006.11
2018-12-16T09:46:11.984Z,1006.08
2018-12-16T09:47:11.981Z,1006.06
2018-12-16T09:48:11.983Z,1006.10
2018-12-16T09:49:11.983Z,1006.06
2018-12-16T09:50:11.989Z,1006.07
2018-12-16T09:51:11.997Z,1006.03
2018-12-16T09:52:11.995Z,1006.00
2018-12-16T09:53:11.997Z,1006.04
2018-12-16T09:54:12.092Z,1006.03
2018-12-16T09:55:12.007Z,1006.01
2018-12-16T09:56:12.016Z,1005.99
2018-12-16T09:57:12.010Z,1006.01
2018-12-16T09:58:12.016Z,1006.02
2018-12-16T09:59:12.020Z,1006.04
2018-12-16T10:00:12.030Z,1006.02
2018-12-16T10:01:12.024Z,1006.03
2018-12-16T10:02:12.033Z,1006.08
2018-12-16T10:03:12.030Z,1006.13
2018-12-16T10:04:12.033Z,1006.12
2018-12-16T10:05:12.035Z,1006.12
2018-12-16T10:06:12.037Z,1006.11
2018-12-16T10:07:12.045Z,1006.13
2018-12-16T10:08:12.051Z,1006.10
2018-12-16T10:09:12.047Z,1006.15
2018-12-16T10:10:12.054Z,1006.13
2018-12-16T10:11:12.057Z,1006.15
2018-12-16T10:12:12.059Z,1006.15
2018-12-16T10:13:12.062Z,1006.18
2018-12-16T10:14:12.077Z,1006.20
2018-12-16T10:15:12.082Z,1006.19
2018-12-16T10:16:12.079Z,1006.12
2018-12-16T10:17:12.077Z,1006.19
2018-12-16T10:18:12.083Z,1006.15
2018-12-16T10:19:12.080Z,1006.13
2018-12-16T10:20:12.086Z,1006.12
2018-12-16T10:21:12.104Z,1006.06
2018-12-16T10:22:12.096Z,1006.00
2018-12-16T10:23:12.087Z,1006.02
2018-12-16T10:24:12.104Z,1005.95
2018-12-16T10:25:12.094Z,1005.95
2018-12-16T10:26:12.098Z,1005.97
2018-12-16T10:27:12.141Z,1005.93
2018-12-16T10:28:12.116Z,1005.95
2018-12-16T10:29:12.806Z,1005.89
2018-12-16T10:30:12.120Z,1005.91
2018-12-16T10:31:12.252Z,1005.90
2018-12-16T10:32:12.126Z,1005.93
2018-12-16T10:33:12.188Z,1005.94
2018-12-16T10:34:12.134Z,1005.92
2018-12-16T10:35:12.138Z,1005.90
2018-12-16T10:36:12.154Z,1005.87
2018-12-16T10:37:12.248Z,1005.90
2018-12-16T10:38:12.143Z,1005.91
2018-12-16T10:39:12.152Z,1005.95
2018-12-16T10:40:12.150Z,1005.90
2018-12-16T10:41:12.231Z,1005.96
2018-12-16T10:42:12.158Z,1006.01
2018-12-16T10:43:12.165Z,1006.02
2018-12-16T10:44:12.167Z,1006.00
2018-12-16T10:45:12.184Z,1006.03
2018-12-16T10:46:12.257Z,1006.03
2018-12-16T10:47:12.178Z,1005.96
2018-12-16T10:48:13.261Z,1005.97
2018-12-16T10:49:12.183Z,1006.00
2018-12-16T10:50:12.184Z,1005.95
2018-12-16T10:51:12.195Z,1005.96
2018-12-16T10:52:12.188Z,1005.98
2018-12-16T10:53:12.192Z,1005.96
2018-12-16T10:54:12.196Z,1005.98
2018-12-16T10:55:12.200Z,1005.93
2018-12-16T10:56:12.202Z,1006.00
2018-12-16T10:57:12.204Z,1005.97
2018-12-16T10:58:12.204Z,1005.95
2018-12-16T10:59:12.211Z,1005.93
2018-12-16T11:00:12.218Z,1005.96
2018-12-16T11:01:12.206Z,1005.97
2018-12-16T11:02:12.227Z,1005.99
2018-12-16T11:03:12.212Z,1005.98
2018-12-16T11:04:12.220Z,1005.98
2018-12-16T11:05:12.222Z,1005.97
2018-12-16T11:06:12.230Z,1005.99
2018-12-16T11:07:12.239Z,1005.99
2018-12-16T11:08:12.233Z,1005.95
2018-12-16T11:09:12.232Z,1005.97
2018-12-16T11:10:12.241Z,1005.93
2018-12-16T11:11:12.232Z,1005.97
2018-12-16T11:12:12.248Z,1005.93
2018-12-16T11:13:12.245Z,1005.91
2018-12-16T11:14:12.255Z,1005.91
2018-12-16T11:15:12.249Z,1005.88
2018-12-16T11:16:12.260Z,1005.91
2018-12-16T11:17:12.261Z,1005.92
2018-12-16T11:18:12.258Z,1005.92
2018-12-16T11:19:12.265Z,1005.92
2018-12-16T11:20:12.268Z,1005.90
2018-12-16T11:21:12.271Z,1005.88
2018-12-16T11:22:12.285Z,1005.87
2018-12-16T11:23:12.272Z,1005.84
2018-12-16T11:24:12.279Z,1005.87
2018-12-16T11:25:12.267Z,1005.91
2018-12-16T11:26:12.285Z,1005.89
2018-12-16T11:27:12.277Z,1005.85
2018-12-16T11:28:12.282Z,1005.83
2018-12-16T11:29:12.277Z,1005.87
2018-12-16T11:30:12.291Z,1005.84
2018-12-16T11:31:12.291Z,1005.81
2018-12-16T11:32:12.301Z,1005.80
2018-12-16T11:33:12.293Z,1005.77
2018-12-16T11:34:12.302Z,1005.75
2018-12-16T11:35:12.297Z,1005.73
2018-12-16T11:36:12.305Z,1005.68
2018-12-16T11:37:12.425Z,1005.67
2018-12-16T11:38:12.315Z,1005.66
2018-12-16T11:39:12.313Z,1005.62
2018-12-16T11:40:12.317Z,1005.61
2018-12-16T11:41:12.468Z,1005.70
2018-12-16T11:42:12.325Z,1005.77
2018-12-16T11:43:12.338Z,1005.79
2018-12-16T11:44:12.336Z,1005.69
2018-12-16T11:45:12.833Z,1005.65
2018-12-16T11:46:12.333Z,1005.66
2018-12-16T11:47:12.339Z,1005.67
2018-12-16T11:48:12.342Z,1005.68
2018-12-16T11:49:12.346Z,1005.70
2018-12-16T11:50:12.349Z,1005.67
2018-12-16T11:51:12.469Z,1005.60
2018-12-16T11:52:12.347Z,1005.58
2018-12-16T11:53:12.351Z,1005.56
2018-12-16T11:54:12.363Z,1005.62
2018-12-16T11:55:12.958Z,1005.60
2018-12-16T11:56:13.795Z,1005.61
2018-12-16T11:57:12.430Z,1005.63
2018-12-16T11:58:12.375Z,1005.66
2018-12-16T11:59:12.373Z,1005.64
2018-12-16T12:00:12.384Z,1005.67
2018-12-16T12:01:12.379Z,1005.63
2018-12-16T12:02:12.385Z,1005.65
2018-12-16T12:03:12.421Z,1005.65
2018-12-16T12:04:12.393Z,1005.61
2018-12-16T12:05:12.417Z,1005.61